sensor_id;sensor_type;location;lat;lon;timestamp;pressure;altitude;pressure_sealevel;temperature;humidity
14204;BME280;7185;51.854;6.622;2023-03-01T00:01:28;102840.16;;;0.65;69.61
14204;BME280;7185;51.854;6.622;2023-03-01T00:04:00;102836.13;;;0.70;70.02
14204;BME280;7185;51.854;6.622;2023-03-01T00:06:32;102827.06;;;0.61;69.48
14204;BME280;7185;51.854;6.622;2023-03-01T00:09:03;102827.84;;;0.45;70.67
14204;BME280;7185;51.854;6.622;2023-03-01T00:11:35;102829.56;;;0.45;70.59
14204;BME280;7185;51.854;6.622;2023-03-01T00:14:07;102820.38;;;0.50;70.74
14204;BME280;7185;51.854;6.622;2023-03-01T00:16:40;102821.19;;;0.49;70.57
14204;BME280;7185;51.854;6.622;2023-03-01T00:19:12;102820.81;;;0.58;70.17
14204;BME280;7185;51.854;6.622;2023-03-01T00:21:44;102819.59;;;0.51;70.28
14204;BME280;7185;51.854;6.622;2023-03-01T00:24:15;102814.59;;;0.39;70.46
14204;BME280;7185;51.854;6.622;2023-03-01T00:26:47;102815.38;;;0.38;70.81
14204;BME280;7185;51.854;6.622;2023-03-01T00:29:19;102820.19;;;0.32;71.06
14204;BME280;7185;51.854;6.622;2023-03-01T00:31:51;102817.50;;;0.30;71.06
14204;BME280;7185;51.854;6.622;2023-03-01T00:34:22;102802.41;;;0.37;71.16
14204;BME280;7185;51.854;6.622;2023-03-01T00:36:53;102813.06;;;0.28;71.04
14204;BME280;7185;51.854;6.622;2023-03-01T00:39:25;102810.38;;;0.26;71.65
14204;BME280;7185;51.854;6.622;2023-03-01T00:41:56;102810.00;;;0.20;71.55
14204;BME280;7185;51.854;6.622;2023-03-01T00:44:29;102809.84;;;0.32;71.97
14204;BME280;7185;51.854;6.622;2023-03-01T00:47:00;102809.00;;;0.18;72.09
14204;BME280;7185;51.854;6.622;2023-03-01T00:49:32;102805.28;;;0.13;72.51
14204;BME280;7185;51.854;6.622;2023-03-01T00:52:03;102805.91;;;0.09;73.05
14204;BME280;7185;51.854;6.622;2023-03-01T00:54:34;102809.88;;;0.04;73.88
14204;BME280;7185;51.854;6.622;2023-03-01T00:57:06;102797.91;;;0.19;73.37
14204;BME280;7185;51.854;6.622;2023-03-01T00:59:39;102799.09;;;0.24;72.53
14204;BME280;7185;51.854;6.622;2023-03-01T01:02:10;102801.75;;;0.26;72.37
14204;BME280;7185;51.854;6.622;2023-03-01T01:04:41;102795.94;;;0.15;72.76
14204;BME280;7185;51.854;6.622;2023-03-01T01:07:13;102786.44;;;0.14;73.44
14204;BME280;7185;51.854;6.622;2023-03-01T01:09:44;102794.88;;;0.11;72.90
14204;BME280;7185;51.854;6.622;2023-03-01T01:12:16;102789.28;;;-0.10;73.69
14204;BME280;7185;51.854;6.622;2023-03-01T01:14:48;102785.56;;;-0.15;73.74
14204;BME280;7185;51.854;6.622;2023-03-01T01:17:20;102782.91;;;-0.02;73.76
14204;BME280;7185;51.854;6.622;2023-03-01T01:19:51;102774.59;;;0.03;73.54
14204;BME280;7185;51.854;6.622;2023-03-01T01:22:23;102766.38;;;-0.05;73.70
14204;BME280;7185;51.854;6.622;2023-03-01T01:24:54;102761.22;;;-0.05;73.49
14204;BME280;7185;51.854;6.622;2023-03-01T01:27:25;102758.63;;;-0.05;74.00
14204;BME280;7185;51.854;6.622;2023-03-01T01:29:58;102760.56;;;-0.16;73.47
14204;BME280;7185;51.854;6.622;2023-03-01T01:32:29;102759.81;;;-0.28;74.40
14204;BME280;7185;51.854;6.622;2023-03-01T01:35:01;102750.44;;;-0.41;74.80
14204;BME280;7185;51.854;6.622;2023-03-01T01:37:32;102755.72;;;-0.40;76.17
14204;BME280;7185;51.854;6.622;2023-03-01T01:40:04;102755.34;;;-0.46;75.82
14204;BME280;7185;51.854;6.622;2023-03-01T01:42:36;102757.38;;;-0.40;75.57
14204;BME280;7185;51.854;6.622;2023-03-01T01:45:28;102762.72;;;-0.37;75.04
14204;BME280;7185;51.854;6.622;2023-03-01T01:48:02;102765.72;;;-0.44;75.77
14204;BME280;7185;51.854;6.622;2023-03-01T01:50:35;102765.19;;;-0.39;75.99
14204;BME280;7185;51.854;6.622;2023-03-01T01:53:09;102769.56;;;-0.38;75.58
14204;BME280;7185;51.854;6.622;2023-03-01T01:55:44;102761.13;;;-0.35;75.40
14204;BME280;7185;51.854;6.622;2023-03-01T01:58:18;102754.88;;;-0.39;75.35
14204;BME280;7185;51.854;6.622;2023-03-01T02:00:51;102764.66;;;-0.48;75.72
14204;BME280;7185;51.854;6.622;2023-03-01T02:03:25;102760.56;;;-0.44;75.68
14204;BME280;7185;51.854;6.622;2023-03-01T02:06:00;102764.97;;;-0.57;75.92
14204;BME280;7185;51.854;6.622;2023-03-01T02:08:35;102769.06;;;-0.60;76.37
14204;BME280;7185;51.854;6.622;2023-03-01T02:11:08;102759.91;;;-0.55;75.78
14204;BME280;7185;51.854;6.622;2023-03-01T02:13:39;102759.13;;;-0.54;76.08
14204;BME280;7185;51.854;6.622;2023-03-01T02:16:13;102763.06;;;-0.59;76.53
14204;BME280;7185;51.854;6.622;2023-03-01T02:18:45;102753.38;;;-0.63;75.99
14204;BME280;7185;51.854;6.622;2023-03-01T02:21:20;102748.72;;;-0.69;76.50
14204;BME280;7185;51.854;6.622;2023-03-01T02:23:54;102739.50;;;-0.66;77.06
14204;BME280;7185;51.854;6.622;2023-03-01T02:26:29;102735.13;;;-0.67;77.09
14204;BME280;7185;51.854;6.622;2023-03-01T02:29:06;102743.69;;;-0.81;77.45
14204;BME280;7185;51.854;6.622;2023-03-01T02:31:37;102737.72;;;-0.67;77.14
14204;BME280;7185;51.854;6.622;2023-03-01T02:34:15;102732.19;;;-0.73;77.34
14204;BME280;7185;51.854;6.622;2023-03-01T02:36:48;102733.81;;;-0.75;77.41
14204;BME280;7185;51.854;6.622;2023-03-01T02:39:21;102739.44;;;-0.81;77.67
14204;BME280;7185;51.854;6.622;2023-03-01T02:41:55;102736.78;;;-0.82;77.70
14204;BME280;7185;51.854;6.622;2023-03-01T02:44:28;102735.00;;;-0.83;77.86
14204;BME280;7185;51.854;6.622;2023-03-01T02:47:00;102737.50;;;-0.85;77.78
14204;BME280;7185;51.854;6.622;2023-03-01T02:49:34;102740.56;;;-0.90;78.36
14204;BME280;7185;51.854;6.622;2023-03-01T02:52:16;102731.81;;;-0.79;78.06
14204;BME280;7185;51.854;6.622;2023-03-01T02:54:49;102736.19;;;-0.91;77.91
14204;BME280;7185;51.854;6.622;2023-03-01T02:57:23;102742.72;;;-0.83;78.12
14204;BME280;7185;51.854;6.622;2023-03-01T02:59:56;102737.19;;;-0.89;78.27
14204;BME280;7185;51.854;6.622;2023-03-01T03:02:29;102733.00;;;-0.87;78.16
14204;BME280;7185;51.854;6.622;2023-03-01T03:05:08;102740.16;;;-0.83;77.81
14204;BME280;7185;51.854;6.622;2023-03-01T03:07:40;102739.06;;;-0.87;77.86
14204;BME280;7185;51.854;6.622;2023-03-01T03:10:13;102740.66;;;-0.89;77.44
14204;BME280;7185;51.854;6.622;2023-03-01T03:12:47;102739.78;;;-0.89;77.14
14204;BME280;7185;51.854;6.622;2023-03-01T03:15:21;102736.59;;;-0.99;77.83
14204;BME280;7185;51.854;6.622;2023-03-01T03:17:53;102737.38;;;-1.00;77.95
14204;BME280;7185;51.854;6.622;2023-03-01T03:20:26;102743.63;;;-0.96;78.49
14204;BME280;7185;51.854;6.622;2023-03-01T03:22:58;102741.34;;;-0.91;78.10
14204;BME280;7185;51.854;6.622;2023-03-01T03:25:29;102739.19;;;-0.99;78.13
14204;BME280;7185;51.854;6.622;2023-03-01T03:28:00;102731.84;;;-1.06;78.53
14204;BME280;7185;51.854;6.622;2023-03-01T03:30:33;102734.03;;;-0.99;78.73
14204;BME280;7185;51.854;6.622;2023-03-01T03:33:05;102737.59;;;-0.97;78.68
14204;BME280;7185;51.854;6.622;2023-03-01T03:35:38;102735.81;;;-1.11;79.10
14204;BME280;7185;51.854;6.622;2023-03-01T03:38:10;102742.53;;;-1.00;78.50
14204;BME280;7185;51.854;6.622;2023-03-01T03:40:45;102740.44;;;-1.05;78.47
14204;BME280;7185;51.854;6.622;2023-03-01T03:43:18;102733.03;;;-1.14;78.98
14204;BME280;7185;51.854;6.622;2023-03-01T03:45:50;102728.69;;;-1.15;79.24
14204;BME280;7185;51.854;6.622;2023-03-01T03:48:22;102727.50;;;-1.20;78.90
14204;BME280;7185;51.854;6.622;2023-03-01T03:50:55;102720.25;;;-1.26;79.62
14204;BME280;7185;51.854;6.622;2023-03-01T03:53:27;102719.06;;;-1.18;78.90
14204;BME280;7185;51.854;6.622;2023-03-01T03:55:59;102719.31;;;-1.28;79.71
14204;BME280;7185;51.854;6.622;2023-03-01T03:58:31;102717.31;;;-1.32;79.93
14204;BME280;7185;51.854;6.622;2023-03-01T04:01:03;102710.38;;;-1.33;79.98
14204;BME280;7185;51.854;6.622;2023-03-01T04:03:35;102713.94;;;-1.31;79.46
14204;BME280;7185;51.854;6.622;2023-03-01T04:06:06;102716.22;;;-1.36;80.10
14204;BME280;7185;51.854;6.622;2023-03-01T04:08:38;102705.91;;;-1.36;80.19
14204;BME280;7185;51.854;6.622;2023-03-01T04:11:09;102703.75;;;-1.43;80.85
14204;BME280;7185;51.854;6.622;2023-03-01T04:13:59;102700.38;;;-1.42;80.59
14204;BME280;7185;51.854;6.622;2023-03-01T04:16:31;102701.16;;;-1.30;80.12
14204;BME280;7185;51.854;6.622;2023-03-01T04:19:03;102703.72;;;-1.30;80.16
14204;BME280;7185;51.854;6.622;2023-03-01T04:21:36;102698.81;;;-1.40;79.80
14204;BME280;7185;51.854;6.622;2023-03-01T04:24:07;102703.16;;;-1.39;80.38
14204;BME280;7185;51.854;6.622;2023-03-01T04:26:39;102694.22;;;-1.44;80.55
14204;BME280;7185;51.854;6.622;2023-03-01T04:29:14;102703.94;;;-1.40;80.48
14204;BME280;7185;51.854;6.622;2023-03-01T04:31:46;102697.41;;;-1.35;80.66
14204;BME280;7185;51.854;6.622;2023-03-01T04:34:19;102697.63;;;-1.32;80.54
14204;BME280;7185;51.854;6.622;2023-03-01T04:36:50;102701.59;;;-1.23;79.99
14204;BME280;7185;51.854;6.622;2023-03-01T04:39:21;102697.81;;;-1.29;80.27
14204;BME280;7185;51.854;6.622;2023-03-01T04:41:53;102699.19;;;-1.34;79.92
14204;BME280;7185;51.854;6.622;2023-03-01T04:44:25;102689.91;;;-1.32;79.88
14204;BME280;7185;51.854;6.622;2023-03-01T04:46:57;102690.47;;;-1.36;79.86
14204;BME280;7185;51.854;6.622;2023-03-01T04:49:29;102689.47;;;-1.51;80.55
14204;BME280;7185;51.854;6.622;2023-03-01T04:52:01;102684.16;;;-1.54;80.50
14204;BME280;7185;51.854;6.622;2023-03-01T04:54:33;102681.59;;;-1.54;81.17
14204;BME280;7185;51.854;6.622;2023-03-01T04:57:05;102672.06;;;-1.55;81.44
14204;BME280;7185;51.854;6.622;2023-03-01T04:59:36;102665.34;;;-1.53;81.30
14204;BME280;7185;51.854;6.622;2023-03-01T05:02:09;102664.28;;;-1.57;81.01
14204;BME280;7185;51.854;6.622;2023-03-01T05:04:40;102667.31;;;-1.63;81.57
14204;BME280;7185;51.854;6.622;2023-03-01T05:07:12;102670.91;;;-1.61;81.80
14204;BME280;7185;51.854;6.622;2023-03-01T05:09:49;102666.31;;;-1.65;81.88
14204;BME280;7185;51.854;6.622;2023-03-01T05:12:20;102659.22;;;-1.55;81.80
14204;BME280;7185;51.854;6.622;2023-03-01T05:14:52;102664.34;;;-1.55;81.80
14204;BME280;7185;51.854;6.622;2023-03-01T05:17:24;102651.72;;;-1.52;81.66
14204;BME280;7185;51.854;6.622;2023-03-01T05:19:56;102660.41;;;-1.50;81.32
14204;BME280;7185;51.854;6.622;2023-03-01T05:22:29;102657.03;;;-1.49;81.55
14204;BME280;7185;51.854;6.622;2023-03-01T05:25:01;102658.44;;;-1.54;81.02
14204;BME280;7185;51.854;6.622;2023-03-01T05:27:32;102652.50;;;-1.53;81.13
14204;BME280;7185;51.854;6.622;2023-03-01T05:30:04;102648.72;;;-1.58;81.71
14204;BME280;7185;51.854;6.622;2023-03-01T05:32:45;102646.13;;;-1.58;81.56
14204;BME280;7185;51.854;6.622;2023-03-01T05:35:17;102650.31;;;-1.47;80.71
14204;BME280;7185;51.854;6.622;2023-03-01T05:37:49;102652.28;;;-1.70;81.41
14204;BME280;7185;51.854;6.622;2023-03-01T05:40:22;102643.78;;;-1.55;81.06
14204;BME280;7185;51.854;6.622;2023-03-01T05:42:55;102646.34;;;-1.55;81.39
14204;BME280;7185;51.854;6.622;2023-03-01T05:45:26;102651.97;;;-1.61;80.85
14204;BME280;7185;51.854;6.622;2023-03-01T05:47:59;102645.88;;;-1.63;80.98
14204;BME280;7185;51.854;6.622;2023-03-01T05:50:32;102646.13;;;-1.58;81.29
14204;BME280;7185;51.854;6.622;2023-03-01T05:53:05;102650.72;;;-1.68;81.61
14204;BME280;7185;51.854;6.622;2023-03-01T05:55:38;102648.72;;;-1.72;81.79
14204;BME280;7185;51.854;6.622;2023-03-01T05:58:10;102653.69;;;-1.62;81.43
14204;BME280;7185;51.854;6.622;2023-03-01T06:00:44;102655.16;;;-1.65;81.58
14204;BME280;7185;51.854;6.622;2023-03-01T06:03:17;102653.97;;;-1.57;81.42
14204;BME280;7185;51.854;6.622;2023-03-01T06:05:48;102654.38;;;-1.64;81.96
14204;BME280;7185;51.854;6.622;2023-03-01T06:08:20;102656.44;;;-1.58;81.48
14204;BME280;7185;51.854;6.622;2023-03-01T06:10:52;102648.91;;;-1.69;81.54
14204;BME280;7185;51.854;6.622;2023-03-01T06:13:23;102654.28;;;-1.66;81.35
14204;BME280;7185;51.854;6.622;2023-03-01T06:15:55;102653.69;;;-1.62;81.46
14204;BME280;7185;51.854;6.622;2023-03-01T06:18:28;102647.53;;;-1.64;80.90
14204;BME280;7185;51.854;6.622;2023-03-01T06:20:59;102652.88;;;-1.61;81.25
14204;BME280;7185;51.854;6.622;2023-03-01T06:23:31;102650.31;;;-1.74;81.53
14204;BME280;7185;51.854;6.622;2023-03-01T06:26:05;102651.00;;;-1.77;82.08
14204;BME280;7185;51.854;6.622;2023-03-01T06:28:36;102638.63;;;-1.69;82.36
14204;BME280;7185;51.854;6.622;2023-03-01T06:31:08;102644.09;;;-1.78;82.62
14204;BME280;7185;51.854;6.622;2023-03-01T06:33:40;102642.00;;;-1.70;82.64
14204;BME280;7185;51.854;6.622;2023-03-01T06:36:12;102641.19;;;-1.55;82.05
14204;BME280;7185;51.854;6.622;2023-03-01T06:38:43;102644.47;;;-1.45;81.49
14204;BME280;7185;51.854;6.622;2023-03-01T06:41:15;102644.66;;;-1.55;81.58
14204;BME280;7185;51.854;6.622;2023-03-01T06:43:46;102645.66;;;-1.53;81.92
14204;BME280;7185;51.854;6.622;2023-03-01T06:46:17;102643.16;;;-1.51;81.88
14204;BME280;7185;51.854;6.622;2023-03-01T06:48:50;102641.59;;;-1.49;81.82
14204;BME280;7185;51.854;6.622;2023-03-01T06:51:21;102645.34;;;-1.44;82.01
14204;BME280;7185;51.854;6.622;2023-03-01T06:53:53;102646.03;;;-1.47;82.27
14204;BME280;7185;51.854;6.622;2023-03-01T06:56:24;102643.88;;;-1.27;82.01
14204;BME280;7185;51.854;6.622;2023-03-01T06:58:55;102638.78;;;-1.12;82.30
14204;BME280;7185;51.854;6.622;2023-03-01T07:01:27;102641.47;;;-0.82;82.37
14204;BME280;7185;51.854;6.622;2023-03-01T07:03:59;102650.19;;;-0.37;82.54
14204;BME280;7185;51.854;6.622;2023-03-01T07:06:31;102637.78;;;0.16;81.84
14204;BME280;7185;51.854;6.622;2023-03-01T07:09:02;102636.19;;;0.65;80.24
14204;BME280;7185;51.854;6.622;2023-03-01T07:11:34;102629.56;;;1.18;77.24
14204;BME280;7185;51.854;6.622;2023-03-01T07:14:05;102637.19;;;1.82;76.02
14204;BME280;7185;51.854;6.622;2023-03-01T07:16:36;102640.00;;;2.39;71.95
14204;BME280;7185;51.854;6.622;2023-03-01T07:19:09;102639.91;;;2.94;70.45
14204;BME280;7185;51.854;6.622;2023-03-01T07:21:41;102636.06;;;3.43;66.85
14204;BME280;7185;51.854;6.622;2023-03-01T07:24:12;102634.75;;;3.72;62.63
14204;BME280;7185;51.854;6.622;2023-03-01T07:26:44;102641.34;;;4.27;62.29
14204;BME280;7185;51.854;6.622;2023-03-01T07:29:15;102636.97;;;4.70;60.11
14204;BME280;7185;51.854;6.622;2023-03-01T07:31:46;102630.56;;;5.07;57.76
14204;BME280;7185;51.854;6.622;2023-03-01T07:34:19;102635.31;;;5.42;55.41
14204;BME280;7185;51.854;6.622;2023-03-01T07:36:51;102632.66;;;5.92;54.36
14204;BME280;7185;51.854;6.622;2023-03-01T07:39:22;102629.28;;;6.48;51.20
14204;BME280;7185;51.854;6.622;2023-03-01T07:41:54;102622.13;;;6.98;51.07
14204;BME280;7185;51.854;6.622;2023-03-01T07:44:25;102632.16;;;7.47;49.28
14204;BME280;7185;51.854;6.622;2023-03-01T07:46:56;102627.44;;;7.99;48.71
14204;BME280;7185;51.854;6.622;2023-03-01T07:49:29;102627.50;;;8.39;47.84
14204;BME280;7185;51.854;6.622;2023-03-01T07:52:01;102617.25;;;8.86;45.98
14204;BME280;7185;51.854;6.622;2023-03-01T07:54:32;102619.06;;;9.32;43.91
14204;BME280;7185;51.854;6.622;2023-03-01T07:57:03;102628.78;;;9.86;42.93
14204;BME280;7185;51.854;6.622;2023-03-01T07:59:35;102617.97;;;10.20;41.66
14204;BME280;7185;51.854;6.622;2023-03-01T08:02:10;102615.81;;;10.51;41.16
14204;BME280;7185;51.854;6.622;2023-03-01T08:04:43;102612.88;;;10.91;40.87
14204;BME280;7185;51.854;6.622;2023-03-01T08:07:14;102619.34;;;11.19;39.57
14204;BME280;7185;51.854;6.622;2023-03-01T08:09:45;102622.84;;;11.21;38.80
14204;BME280;7185;51.854;6.622;2023-03-01T08:12:17;102619.94;;;11.75;37.78
14204;BME280;7185;51.854;6.622;2023-03-01T08:14:48;102617.78;;;12.29;38.00
14204;BME280;7185;51.854;6.622;2023-03-01T08:17:20;102610.06;;;12.58;36.52
14204;BME280;7185;51.854;6.622;2023-03-01T08:19:53;102609.34;;;12.95;35.96
14204;BME280;7185;51.854;6.622;2023-03-01T08:22:24;102611.09;;;12.96;35.19
14204;BME280;7185;51.854;6.622;2023-03-01T08:24:55;102609.34;;;12.95;35.20
14204;BME280;7185;51.854;6.622;2023-03-01T08:27:27;102615.44;;;12.83;35.59
14204;BME280;7185;51.854;6.622;2023-03-01T08:29:58;102609.31;;;12.86;34.94
14204;BME280;7185;51.854;6.622;2023-03-01T08:32:32;102616.59;;;13.83;34.17
14204;BME280;7185;51.854;6.622;2023-03-01T08:35:07;102615.72;;;14.15;33.93
14204;BME280;7185;51.854;6.622;2023-03-01T08:37:39;102605.06;;;14.64;31.53
14204;BME280;7185;51.854;6.622;2023-03-01T08:40:11;102602.28;;;15.03;31.33
14204;BME280;7185;51.854;6.622;2023-03-01T08:42:43;102601.38;;;15.09;31.17
14204;BME280;7185;51.854;6.622;2023-03-01T08:45:14;102598.72;;;15.18;31.25
14204;BME280;7185;51.854;6.622;2023-03-01T08:47:50;102602.16;;;15.26;31.38
14204;BME280;7185;51.854;6.622;2023-03-01T08:50:24;102598.44;;;15.55;30.85
14204;BME280;7185;51.854;6.622;2023-03-01T08:52:55;102588.69;;;15.65;30.86
14204;BME280;7185;51.854;6.622;2023-03-01T08:55:27;102594.69;;;15.92;29.82
14204;BME280;7185;51.854;6.622;2023-03-01T08:57:58;102591.34;;;15.67;30.55
14204;BME280;7185;51.854;6.622;2023-03-01T09:00:30;102594.03;;;15.60;29.58
14204;BME280;7185;51.854;6.622;2023-03-01T09:03:04;102596.78;;;15.45;30.08
14204;BME280;7185;51.854;6.622;2023-03-01T09:05:37;102590.03;;;14.88;30.08
14204;BME280;7185;51.854;6.622;2023-03-01T09:08:09;102586.56;;;14.77;30.94
14204;BME280;7185;51.854;6.622;2023-03-01T09:10:40;102586.66;;;14.40;30.62
14204;BME280;7185;51.854;6.622;2023-03-01T09:13:12;102583.09;;;14.69;30.28
14204;BME280;7185;51.854;6.622;2023-03-01T09:15:43;102579.56;;;14.57;30.70
14204;BME280;7185;51.854;6.622;2023-03-01T09:18:14;102580.41;;;14.72;30.77
14204;BME280;7185;51.854;6.622;2023-03-01T09:20:47;102576.94;;;14.56;30.55
14204;BME280;7185;51.854;6.622;2023-03-01T09:23:19;102573.50;;;14.29;31.06
14204;BME280;7185;51.854;6.622;2023-03-01T09:25:50;102571.66;;;14.59;30.56
14204;BME280;7185;51.854;6.622;2023-03-01T09:28:21;102577.44;;;15.40;30.71
14204;BME280;7185;51.854;6.622;2023-03-01T09:30:57;102577.34;;;15.52;29.46
14204;BME280;7185;51.854;6.622;2023-03-01T09:33:28;102571.50;;;15.04;29.43
14204;BME280;7185;51.854;6.622;2023-03-01T09:36:02;102576.03;;;14.71;30.29
14204;BME280;7185;51.854;6.622;2023-03-01T09:38:34;102567.16;;;14.87;29.96
14204;BME280;7185;51.854;6.622;2023-03-01T09:41:09;102556.72;;;14.47;30.11
14204;BME280;7185;51.854;6.622;2023-03-01T09:43:43;102560.31;;;14.24;30.58
14204;BME280;7185;51.854;6.622;2023-03-01T09:46:17;102556.78;;;14.17;30.72
14204;BME280;7185;51.854;6.622;2023-03-01T09:48:50;102561.16;;;14.34;30.29
14204;BME280;7185;51.854;6.622;2023-03-01T09:51:26;102558.56;;;14.08;30.67
14204;BME280;7185;51.854;6.622;2023-03-01T09:53:58;102555.91;;;14.23;30.89
14204;BME280;7185;51.854;6.622;2023-03-01T09:56:32;102555.78;;;12.91;31.94
14204;BME280;7185;51.854;6.622;2023-03-01T09:59:07;102559.31;;;12.94;32.47
14204;BME280;7185;51.854;6.622;2023-03-01T10:01:43;102545.09;;;12.45;33.35
14204;BME280;7185;51.854;6.622;2023-03-01T10:04:23;102542.56;;;12.74;32.73
14204;BME280;7185;51.854;6.622;2023-03-01T10:07:01;102542.25;;;12.14;33.52
14204;BME280;7185;51.854;6.622;2023-03-01T10:09:42;102541.84;;;11.61;34.63
14204;BME280;7185;51.854;6.622;2023-03-01T10:12:15;102530.66;;;11.87;34.30
14204;BME280;7185;51.854;6.622;2023-03-01T10:14:49;102529.78;;;11.87;33.76
14204;BME280;7185;51.854;6.622;2023-03-01T10:17:24;102527.56;;;12.50;33.26
14204;BME280;7185;51.854;6.622;2023-03-01T10:19:57;102532.88;;;12.61;33.14
14204;BME280;7185;51.854;6.622;2023-03-01T10:22:40;102523.34;;;12.91;33.04
14204;BME280;7185;51.854;6.622;2023-03-01T10:25:13;102510.94;;;12.57;32.86
14204;BME280;7185;51.854;6.622;2023-03-01T10:27:47;102507.63;;;13.28;32.82
14204;BME280;7185;51.854;6.622;2023-03-01T10:30:22;102496.97;;;14.33;31.81
14204;BME280;7185;51.854;6.622;2023-03-01T10:33:00;102494.16;;;14.71;30.37
14204;BME280;7185;51.854;6.622;2023-03-01T10:35:33;102489.13;;;15.61;29.93
14204;BME280;7185;51.854;6.622;2023-03-01T10:38:08;102494.94;;;14.93;30.44
14204;BME280;7185;51.854;6.622;2023-03-01T10:40:49;102493.03;;;15.15;29.70
14204;BME280;7185;51.854;6.622;2023-03-01T10:43:21;102478.34;;;15.84;29.34
14204;BME280;7185;51.854;6.622;2023-03-01T10:45:53;102477.06;;;15.27;29.24
14204;BME280;7185;51.854;6.622;2023-03-01T10:48:25;102477.16;;;16.13;28.11
14204;BME280;7185;51.854;6.622;2023-03-01T10:51:07;102467.00;;;16.52;28.46
14204;BME280;7185;51.854;6.622;2023-03-01T10:53:41;102463.34;;;15.86;28.16
14204;BME280;7185;51.854;6.622;2023-03-01T10:56:14;102471.25;;;14.77;27.72
14204;BME280;7185;51.854;6.622;2023-03-01T10:58:56;102475.38;;;15.22;27.68
14204;BME280;7185;51.854;6.622;2023-03-01T11:01:29;102462.59;;;15.72;27.66
14204;BME280;7185;51.854;6.622;2023-03-01T11:04:11;102482.38;;;16.21;27.56
14204;BME280;7185;51.854;6.622;2023-03-01T11:06:47;102480.44;;;17.02;27.36
14204;BME280;7185;51.854;6.622;2023-03-01T11:09:32;102466.38;;;15.43;27.62
14204;BME280;7185;51.854;6.622;2023-03-01T11:12:12;102468.13;;;16.31;26.78
14204;BME280;7185;51.854;6.622;2023-03-01T11:14:46;102479.97;;;16.01;26.50
14204;BME280;7185;51.854;6.622;2023-03-01T11:17:21;102476.91;;;17.02;26.36
14204;BME280;7185;51.854;6.622;2023-03-01T11:20:01;102473.06;;;18.22;25.80
14204;BME280;7185;51.854;6.622;2023-03-01T11:22:33;102483.31;;;17.43;25.52
14204;BME280;7185;51.854;6.622;2023-03-01T11:25:10;102476.16;;;17.98;24.96
14204;BME280;7185;51.854;6.622;2023-03-01T11:27:44;102481.47;;;18.42;25.24
14204;BME280;7185;51.854;6.622;2023-03-01T11:30:18;102483.22;;;18.43;24.55
14204;BME280;7185;51.854;6.622;2023-03-01T11:32:53;102481.03;;;18.64;24.52
14204;BME280;7185;51.854;6.622;2023-03-01T11:35:26;102480.97;;;19.05;24.52
14204;BME280;7185;51.854;6.622;2023-03-01T11:38:01;102468.81;;;19.32;24.20
14204;BME280;7185;51.854;6.622;2023-03-01T11:40:51;102462.00;;;19.89;23.47
14204;BME280;7185;51.854;6.622;2023-03-01T11:43:28;102459.88;;;20.02;23.60
14204;BME280;7185;51.854;6.622;2023-03-01T11:46:21;102460.44;;;19.81;23.22
14204;BME280;7185;51.854;6.622;2023-03-01T11:49:02;102468.00;;;19.98;23.09
14204;BME280;7185;51.854;6.622;2023-03-01T11:51:41;102456.59;;;20.54;22.97
14204;BME280;7185;51.854;6.622;2023-03-01T11:54:19;102449.88;;;20.41;23.40
14204;BME280;7185;51.854;6.622;2023-03-01T11:56:57;102454.25;;;20.72;22.26
14204;BME280;7185;51.854;6.622;2023-03-01T11:59:45;102450.69;;;20.43;22.47
14204;BME280;7185;51.854;6.622;2023-03-01T12:08:06;102436.69;;;21.21;22.93
14204;BME280;7185;51.854;6.622;2023-03-01T12:10:47;102443.09;;;21.68;21.50
14204;BME280;7185;51.854;6.622;2023-03-01T12:13:38;102434.69;;;21.80;21.99
14204;BME280;7185;51.854;6.622;2023-03-01T12:16:19;102433.81;;;21.00;22.11
14204;BME280;7185;51.854;6.622;2023-03-01T12:18:57;102431.50;;;21.69;21.99
14204;BME280;7185;51.854;6.622;2023-03-01T12:21:37;102424.56;;;21.64;21.82
14204;BME280;7185;51.854;6.622;2023-03-01T12:24:24;102421.63;;;20.93;22.38
14204;BME280;7185;51.854;6.622;2023-03-01T12:27:07;102416.00;;;20.46;22.72
14204;BME280;7185;51.854;6.622;2023-03-01T12:29:46;102394.16;;;22.16;21.93
14204;BME280;7185;51.854;6.622;2023-03-01T12:32:29;102394.16;;;22.16;21.93
14204;BME280;7185;51.854;6.622;2023-03-01T12:35:07;102403.28;;;22.10;21.36
14204;BME280;7185;51.854;6.622;2023-03-01T12:37:46;102402.72;;;22.24;21.50
14204;BME280;7185;51.854;6.622;2023-03-01T12:40:26;102390.78;;;22.11;20.87
14204;BME280;7185;51.854;6.622;2023-03-01T12:43:13;102395.56;;;21.01;22.02
14204;BME280;7185;51.854;6.622;2023-03-01T12:45:53;102398.44;;;20.38;22.30
14204;BME280;7185;51.854;6.622;2023-03-01T12:48:37;102384.00;;;21.02;22.00
14204;BME280;7185;51.854;6.622;2023-03-01T12:51:11;102380.97;;;21.39;21.65
14204;BME280;7185;51.854;6.622;2023-03-01T12:53:45;102375.50;;;21.16;21.29
14204;BME280;7185;51.854;6.622;2023-03-01T12:56:19;102364.56;;;22.21;21.23
14204;BME280;7185;51.854;6.622;2023-03-01T12:58:54;102373.44;;;21.75;21.08
14204;BME280;7185;51.854;6.622;2023-03-01T13:01:35;102364.97;;;22.34;20.54
14204;BME280;7185;51.854;6.622;2023-03-01T13:04:19;102364.53;;;22.22;20.94
14204;BME280;7185;51.854;6.622;2023-03-01T13:07:01;102372.50;;;20.74;21.85
14204;BME280;7185;51.854;6.622;2023-03-01T13:09:37;102355.88;;;20.92;21.46
14204;BME280;7185;51.854;6.622;2023-03-01T13:14:59;102346.22;;;21.65;21.15
14204;BME280;7185;51.854;6.622;2023-03-01T13:17:33;102339.25;;;21.85;21.30
14204;BME280;7185;51.854;6.622;2023-03-01T13:20:11;102330.34;;;22.96;20.11
14204;BME280;7185;51.854;6.622;2023-03-01T13:22:43;102332.16;;;21.60;21.04
14204;BME280;7185;51.854;6.622;2023-03-01T13:25:16;102339.44;;;22.49;20.26
14204;BME280;7185;51.854;6.622;2023-03-01T13:27:48;102331.56;;;21.52;20.79
14204;BME280;7185;51.854;6.622;2023-03-01T13:30:39;102334.84;;;21.84;20.70
14204;BME280;7185;51.854;6.622;2023-03-01T13:36:08;102322.91;;;21.20;20.84
14204;BME280;7185;51.854;6.622;2023-03-01T13:38:45;102323.56;;;21.52;21.06
14204;BME280;7185;51.854;6.622;2023-03-01T13:41:17;102317.56;;;20.68;21.08
14204;BME280;7185;51.854;6.622;2023-03-01T13:44:13;102313.19;;;20.10;21.31
14204;BME280;7185;51.854;6.622;2023-03-01T13:46:52;102299.28;;;20.84;21.84
14204;BME280;7185;51.854;6.622;2023-03-01T13:49:25;102287.91;;;20.52;21.57